createdAt,value
2018-09-19T00:01:02.384Z,20.30
2018-09-19T00:03:29.706Z,20.30
2018-09-19T00:05:56.860Z,20.20
2018-09-19T00:08:24.108Z,20.00
2018-09-19T00:10:51.271Z,19.80
2018-09-19T00:13:18.431Z,19.70
2018-09-19T00:15:45.581Z,19.60
2018-09-19T00:18:12.758Z,19.50
2018-09-19T00:20:39.956Z,19.50
2018-09-19T00:23:07.128Z,19.60
2018-09-19T00:25:34.308Z,19.60
2018-09-19T00:28:01.488Z,19.60
2018-09-19T00:30:28.659Z,19.70
2018-09-19T00:32:55.816Z,19.70
2018-09-19T00:35:22.997Z,19.80
2018-09-19T00:37:50.157Z,19.80
2018-09-19T00:40:17.390Z,19.90
2018-09-19T00:42:44.710Z,19.90
2018-09-19T00:45:12.171Z,19.80
2018-09-19T00:47:39.415Z,19.90
2018-09-19T00:50:06.617Z,20.00
2018-09-19T00:52:33.850Z,20.00
2018-09-19T00:55:00.982Z,20.00
2018-09-19T00:57:28.150Z,20.00
2018-09-19T00:59:55.306Z,20.10
2018-09-19T01:02:22.496Z,20.20
2018-09-19T01:04:49.653Z,20.30
2018-09-19T01:07:16.808Z,20.30
2018-09-19T01:09:43.993Z,20.20
2018-09-19T01:12:11.176Z,20.20
2018-09-19T01:14:38.348Z,20.20
2018-09-19T01:17:05.499Z,20.10
2018-09-19T01:19:32.797Z,20.10
2018-09-19T01:22:00.132Z,20.00
2018-09-19T01:24:27.288Z,20.00
2018-09-19T01:26:54.437Z,19.90
2018-09-19T01:29:21.647Z,19.90
2018-09-19T01:31:48.763Z,19.90
2018-09-19T01:34:15.918Z,19.90
2018-09-19T01:36:43.076Z,19.70
2018-09-19T01:39:10.263Z,19.60
2018-09-19T01:41:37.428Z,19.40
2018-09-19T01:44:04.584Z,19.40
2018-09-19T01:46:31.757Z,19.40
2018-09-19T01:48:58.908Z,19.60
2018-09-19T01:51:26.183Z,19.60
2018-09-19T01:53:53.339Z,19.60
2018-09-19T01:56:20.501Z,19.40
2018-09-19T01:58:47.716Z,19.30
2018-09-19T02:01:14.882Z,19.20
2018-09-19T02:03:42.041Z,19.20
2018-09-19T02:06:09.234Z,19.30
2018-09-19T02:08:36.372Z,19.30
2018-09-19T02:11:03.531Z,19.40
2018-09-19T02:13:30.690Z,19.40
2018-09-19T02:15:57.857Z,19.30
2018-09-19T02:18:25.010Z,19.40
2018-09-19T02:20:52.182Z,19.40
2018-09-19T02:23:19.332Z,19.40
2018-09-19T02:25:46.549Z,19.50
2018-09-19T02:28:13.752Z,19.50
2018-09-19T02:30:40.943Z,19.40
2018-09-19T02:33:08.102Z,19.40
2018-09-19T02:35:35.268Z,19.50
2018-09-19T02:38:02.410Z,19.40
2018-09-19T02:40:29.578Z,19.30
2018-09-19T02:42:56.729Z,19.30
2018-09-19T02:45:23.909Z,19.20
2018-09-19T02:47:51.139Z,19.10
2018-09-19T02:50:18.292Z,19.00
2018-09-19T02:52:50.062Z,19.00
2018-09-19T02:55:17.226Z,18.90
2018-09-19T02:57:44.396Z,19.00
2018-09-19T03:00:11.564Z,19.10
2018-09-19T03:02:38.787Z,19.10
2018-09-19T03:05:05.911Z,19.10
2018-09-19T03:07:33.067Z,19.10
2018-09-19T03:10:00.218Z,19.10
2018-09-19T03:12:27.410Z,19.00
2018-09-19T03:14:54.561Z,19.00
2018-09-19T03:17:21.811Z,19.00
2018-09-19T03:19:48.902Z,18.90
2018-09-19T03:22:16.063Z,19.10
2018-09-19T03:24:43.497Z,19.10
2018-09-19T03:27:10.656Z,19.00
2018-09-19T03:29:37.804Z,18.90
2018-09-19T03:32:05.133Z,18.80
2018-09-19T03:34:32.277Z,18.80
2018-09-19T03:36:59.447Z,18.70
2018-09-19T03:39:26.605Z,18.70
2018-09-19T03:41:53.791Z,18.70
2018-09-19T03:44:20.954Z,18.60
2018-09-19T03:46:48.153Z,18.60
2018-09-19T03:49:15.320Z,18.60
2018-09-19T03:51:42.476Z,18.60
2018-09-19T03:54:09.640Z,18.60
2018-09-19T03:56:36.806Z,18.60
2018-09-19T03:59:04.052Z,18.60
2018-09-19T04:01:31.222Z,18.60
2018-09-19T04:03:58.388Z,18.60
2018-09-19T04:06:25.680Z,18.50
2018-09-19T04:08:52.840Z,18.50
2018-09-19T04:11:20.015Z,18.50
2018-09-19T04:13:47.229Z,18.40
2018-09-19T04:16:14.418Z,18.40
2018-09-19T04:18:41.580Z,18.50
2018-09-19T04:21:08.771Z,18.40
2018-09-19T04:23:35.936Z,18.40
2018-09-19T04:26:03.096Z,18.50
2018-09-19T04:28:30.246Z,18.40
2018-09-19T04:30:57.408Z,18.30
2018-09-19T04:33:24.591Z,18.20
2018-09-19T04:35:51.858Z,18.10
2018-09-19T04:38:19.145Z,18.10
2018-09-19T04:40:46.298Z,18.20
2018-09-19T04:43:14.268Z,18.30
2018-09-19T04:45:41.429Z,18.20
2018-09-19T04:48:08.596Z,18.20
2018-09-19T04:50:35.758Z,18.20
2018-09-19T04:53:02.919Z,18.30
2018-09-19T04:55:30.083Z,18.40
2018-09-19T04:57:57.275Z,18.30
2018-09-19T05:00:24.436Z,18.20
2018-09-19T05:02:51.603Z,18.10
2018-09-19T05:05:18.815Z,18.10
2018-09-19T05:07:45.982Z,17.80
2018-09-19T05:10:13.136Z,17.70
2018-09-19T05:12:40.364Z,17.70
2018-09-19T05:15:07.552Z,17.60
2018-09-19T05:17:34.723Z,17.50
2018-09-19T05:20:01.918Z,17.50
2018-09-19T05:22:29.081Z,17.50
2018-09-19T05:24:56.254Z,17.60
2018-09-19T05:27:23.443Z,17.70
2018-09-19T05:29:50.742Z,17.70
2018-09-19T05:32:17.913Z,17.70
2018-09-19T05:34:45.150Z,17.80
2018-09-19T05:37:12.308Z,17.80
2018-09-19T05:39:40.595Z,17.80
2018-09-19T05:42:07.760Z,17.90
2018-09-19T05:44:34.924Z,17.90
2018-09-19T05:47:02.071Z,17.90
2018-09-19T05:49:29.236Z,17.90
2018-09-19T05:51:56.379Z,17.90
2018-09-19T05:54:23.565Z,18.00
2018-09-19T05:56:50.735Z,18.10
2018-09-19T05:59:17.958Z,18.10
2018-09-19T06:01:45.103Z,18.20
2018-09-19T06:04:12.262Z,18.30
2018-09-19T06:06:39.407Z,18.40
2018-09-19T06:09:07.805Z,18.40
2018-09-19T06:11:34.977Z,18.40
2018-09-19T06:14:02.158Z,18.40
2018-09-19T06:16:29.339Z,18.50
2018-09-19T06:18:56.496Z,18.50
2018-09-19T06:21:23.672Z,18.50
2018-09-19T06:23:50.819Z,18.50
2018-09-19T06:26:17.983Z,18.50
2018-09-19T06:28:45.262Z,18.50
2018-09-19T06:31:12.564Z,18.60
2018-09-19T06:33:39.819Z,18.60
2018-09-19T06:36:07.414Z,18.60
2018-09-19T06:38:34.594Z,18.70
2018-09-19T06:41:01.803Z,18.70
2018-09-19T06:43:29.021Z,18.80
2018-09-19T06:45:57.303Z,18.80
2018-09-19T06:48:24.458Z,18.90
2018-09-19T06:50:51.692Z,19.00
2018-09-19T06:53:18.844Z,19.00
2018-09-19T06:55:46.008Z,19.00
2018-09-19T06:58:13.165Z,19.00
2018-09-19T07:00:40.332Z,19.10
2018-09-19T07:03:07.537Z,19.10
2018-09-19T07:05:34.887Z,19.20
2018-09-19T07:08:02.064Z,19.30
2018-09-19T07:10:29.252Z,19.30
2018-09-19T07:12:56.373Z,19.40
2018-09-19T07:15:23.547Z,19.50
2018-09-19T07:17:50.709Z,19.50
2018-09-19T07:20:17.916Z,19.50
2018-09-19T07:22:45.082Z,19.60
2018-09-19T07:25:12.331Z,19.70
2018-09-19T07:27:39.411Z,19.70
2018-09-19T07:30:06.624Z,19.80
2018-09-19T07:32:33.799Z,19.90
2018-09-19T07:35:01.016Z,19.90
2018-09-19T07:37:28.173Z,20.00
2018-09-19T07:39:55.338Z,20.10
2018-09-19T07:42:29.270Z,20.20
2018-09-19T07:44:56.424Z,20.20
2018-09-19T07:47:23.585Z,20.30
2018-09-19T07:49:50.765Z,20.40
2018-09-19T07:52:17.954Z,20.50
2018-09-19T07:54:45.150Z,20.60
2018-09-19T07:57:12.255Z,20.60
2018-09-19T07:59:39.408Z,20.70
2018-09-19T08:02:06.600Z,20.80
2018-09-19T08:04:33.753Z,20.90
2018-09-19T08:07:00.913Z,21.00
2018-09-19T08:09:28.185Z,21.00
2018-09-19T08:11:55.360Z,21.10
2018-09-19T08:14:22.538Z,21.20
2018-09-19T08:16:49.712Z,21.20
2018-09-19T08:19:16.896Z,21.40
2018-09-19T08:21:44.016Z,21.40
2018-09-19T08:24:11.162Z,21.50
2018-09-19T08:26:38.341Z,21.60
2018-09-19T08:29:05.554Z,21.70
2018-09-19T08:31:32.739Z,21.80
2018-09-19T08:33:59.894Z,21.80
2018-09-19T08:36:27.081Z,21.80
2018-09-19T08:38:54.227Z,21.90
2018-09-19T08:41:21.427Z,22.00
2018-09-19T08:43:48.709Z,22.10
2018-09-19T08:46:15.873Z,22.20
2018-09-19T08:48:43.029Z,22.20
2018-09-19T08:51:10.184Z,22.30
2018-09-19T08:53:37.348Z,22.40
2018-09-19T08:56:04.523Z,22.40
2018-09-19T08:58:31.832Z,22.50
2018-09-19T09:00:58.996Z,22.60
2018-09-19T09:03:26.155Z,22.70
2018-09-19T09:05:53.307Z,22.80
2018-09-19T09:08:20.512Z,22.90
2018-09-19T09:10:47.664Z,23.00
2018-09-19T09:13:14.820Z,23.10
2018-09-19T09:15:41.968Z,23.20
2018-09-19T09:18:09.127Z,23.30
2018-09-19T09:20:36.302Z,23.50
2018-09-19T09:23:03.544Z,23.50
2018-09-19T09:25:30.691Z,23.50
2018-09-19T09:27:58.011Z,23.50
2018-09-19T09:30:25.183Z,23.70
2018-09-19T09:32:52.346Z,23.80
2018-09-19T09:35:19.503Z,23.80
2018-09-19T09:37:46.715Z,23.90
2018-09-19T09:40:13.901Z,24.10
2018-09-19T09:42:41.136Z,24.10
2018-09-19T09:45:08.294Z,24.30
2018-09-19T09:47:35.475Z,24.50
2018-09-19T09:50:02.651Z,24.60
2018-09-19T09:52:29.850Z,24.70
2018-09-19T09:54:57.023Z,24.80
2018-09-19T09:57:24.173Z,24.80
2018-09-19T09:59:51.379Z,24.90
2018-09-19T10:02:18.541Z,25.10
2018-09-19T10:04:45.698Z,25.20
2018-09-19T10:07:12.857Z,25.30
2018-09-19T10:09:40.176Z,25.40
2018-09-19T10:12:07.335Z,25.50
2018-09-19T10:14:34.595Z,25.60
2018-09-19T10:17:01.880Z,25.60
2018-09-19T10:19:29.392Z,25.70
2018-09-19T10:21:56.559Z,25.70
2018-09-19T10:24:23.714Z,25.80
2018-09-19T10:26:50.952Z,25.80
2018-09-19T10:29:18.152Z,25.90
2018-09-19T10:31:45.325Z,26.00
2018-09-19T10:34:12.496Z,26.10
2018-09-19T10:36:39.654Z,26.10
2018-09-19T10:41:41.227Z,26.20
2018-09-19T10:44:08.437Z,26.20
2018-09-19T10:46:35.592Z,26.30
2018-09-19T10:49:02.760Z,26.40
2018-09-19T10:51:29.910Z,26.50
2018-09-19T10:53:57.071Z,26.60
2018-09-19T10:56:24.228Z,26.50
2018-09-19T10:58:51.423Z,26.60
2018-09-19T11:01:18.580Z,26.70
2018-09-19T11:03:45.735Z,26.80
2018-09-19T11:06:13.096Z,26.90
2018-09-19T11:08:40.483Z,27.00
2018-09-19T11:11:07.927Z,27.00
2018-09-19T11:13:35.080Z,27.00
2018-09-19T11:16:02.250Z,27.20
2018-09-19T11:18:29.414Z,27.20
2018-09-19T11:20:56.583Z,27.40
2018-09-19T11:23:23.737Z,27.40
2018-09-19T11:25:50.892Z,27.50
2018-09-19T11:28:18.044Z,27.50
2018-09-19T11:30:45.207Z,27.50
2018-09-19T11:33:12.352Z,27.40
2018-09-19T11:35:39.520Z,27.60
2018-09-19T11:38:06.707Z,27.70
2018-09-19T11:40:33.873Z,27.80
2018-09-19T11:43:01.020Z,28.00
2018-09-19T11:45:28.185Z,28.10
2018-09-19T11:47:55.346Z,28.20
2018-09-19T11:50:22.504Z,28.30
2018-09-19T11:52:49.675Z,28.40
2018-09-19T11:55:16.851Z,28.60
2018-09-19T11:57:43.999Z,28.70
2018-09-19T12:00:11.171Z,28.90
2018-09-19T12:02:38.329Z,29.10
2018-09-19T12:05:05.567Z,29.20
2018-09-19T12:07:32.714Z,29.30
2018-09-19T12:10:00.063Z,29.40
2018-09-19T12:12:27.232Z,29.50
2018-09-19T12:14:54.559Z,29.60
2018-09-19T12:17:21.716Z,29.80
2018-09-19T12:19:48.919Z,29.90
2018-09-19T12:22:16.083Z,30.00
2018-09-19T12:24:43.271Z,30.10
2018-09-19T12:27:10.419Z,30.10
2018-09-19T12:29:37.598Z,30.30
2018-09-19T12:32:04.800Z,30.30
2018-09-19T12:34:31.961Z,30.50
2018-09-19T12:36:59.102Z,30.70
2018-09-19T12:39:26.294Z,30.80
2018-09-19T12:41:53.460Z,30.80
2018-09-19T12:44:20.616Z,31.00
2018-09-19T12:46:47.824Z,31.10
2018-09-19T12:49:15.063Z,31.10
2018-09-19T12:51:42.163Z,31.20
2018-09-19T12:54:09.332Z,31.20
2018-09-19T12:56:36.489Z,31.30
2018-09-19T12:59:03.695Z,31.30
2018-09-19T13:01:30.934Z,31.30
2018-09-19T13:03:58.088Z,31.40
2018-09-19T13:06:25.251Z,31.40
2018-09-19T13:08:52.415Z,31.50
2018-09-19T13:11:19.570Z,31.50
2018-09-19T13:13:46.719Z,31.50
2018-09-19T13:16:13.943Z,31.50
2018-09-19T13:18:41.109Z,31.50
2018-09-19T13:21:08.474Z,31.50
2018-09-19T13:23:35.618Z,31.60
2018-09-19T13:26:02.788Z,31.50
2018-09-19T13:28:29.939Z,31.60
2018-09-19T13:30:57.124Z,31.40
2018-09-19T13:33:24.283Z,31.30
2018-09-19T13:35:51.452Z,31.20
2018-09-19T13:38:18.612Z,31.40
2018-09-19T13:40:45.777Z,31.50
2018-09-19T13:43:12.967Z,31.60
2018-09-19T13:45:40.144Z,31.70
2018-09-19T13:48:07.759Z,31.70
2018-09-19T13:51:13.867Z,31.70
2018-09-19T13:53:41.051Z,31.60
2018-09-19T13:56:08.230Z,31.60
2018-09-19T13:58:35.378Z,31.60
2018-09-19T14:01:02.534Z,31.50
2018-09-19T14:03:29.755Z,31.50
2018-09-19T14:05:56.940Z,31.30
2018-09-19T14:08:24.108Z,31.10
2018-09-19T14:10:51.456Z,31.00
2018-09-19T14:13:18.625Z,31.00
2018-09-19T14:15:45.779Z,30.70
2018-09-19T14:18:13.166Z,30.40
2018-09-19T14:20:40.424Z,30.10
2018-09-19T14:23:07.583Z,29.90
2018-09-19T14:25:35.188Z,29.80
2018-09-19T14:28:02.454Z,29.60
2018-09-19T14:30:29.748Z,29.50
2018-09-19T14:32:58.100Z,29.60
2018-09-19T14:35:25.350Z,29.90
2018-09-19T14:37:52.460Z,30.30
2018-09-19T14:40:19.639Z,30.50
2018-09-19T14:42:46.813Z,30.70
2018-09-19T14:45:13.971Z,30.80
2018-09-19T14:47:41.141Z,30.90
2018-09-19T14:50:08.295Z,30.90
2018-09-19T14:52:35.514Z,30.90
2018-09-19T14:55:02.696Z,30.90
2018-09-19T14:57:29.923Z,30.90
2018-09-19T14:59:57.147Z,31.00
2018-09-19T15:02:24.321Z,31.20
2018-09-19T15:04:51.482Z,31.20
2018-09-19T15:07:18.713Z,31.10
2018-09-19T15:09:45.955Z,31.00
2018-09-19T15:12:13.215Z,30.80
2018-09-19T15:14:40.459Z,30.60
2018-09-19T15:17:07.731Z,30.60
2018-09-19T15:19:34.982Z,30.50
2018-09-19T15:22:02.322Z,30.60
2018-09-19T15:24:29.639Z,30.50
2018-09-19T15:26:56.736Z,30.30
2018-09-19T15:31:57.852Z,30.00
2018-09-19T15:34:24.996Z,29.80
2018-09-19T15:36:52.161Z,29.70
2018-09-19T15:39:19.337Z,29.70
2018-09-19T15:41:46.484Z,29.60
2018-09-19T15:44:13.702Z,29.60
2018-09-19T15:46:40.836Z,29.60
2018-09-19T15:49:08.011Z,29.50
2018-09-19T15:51:35.168Z,29.50
2018-09-19T15:54:02.679Z,29.50
2018-09-19T15:56:29.828Z,29.30
2018-09-19T15:58:57.063Z,29.20
2018-09-19T16:01:24.211Z,29.10
2018-09-19T16:03:51.439Z,29.00
2018-09-19T16:06:18.653Z,28.90
2018-09-19T16:08:45.747Z,28.80
2018-09-19T16:11:13.192Z,28.70
2018-09-19T16:13:40.480Z,28.70
2018-09-19T16:16:07.770Z,28.60
2018-09-19T16:18:34.969Z,28.50
2018-09-19T16:21:02.223Z,28.40
2018-09-19T16:23:29.350Z,28.30
2018-09-19T16:25:56.520Z,28.30
2018-09-19T16:28:23.792Z,28.20
2018-09-19T16:30:50.972Z,28.20
2018-09-19T16:33:18.152Z,28.10
2018-09-19T16:35:45.311Z,28.10
2018-09-19T16:38:12.656Z,28.00
2018-09-19T16:40:39.924Z,28.00
2018-09-19T16:43:08.168Z,28.10
2018-09-19T16:45:35.412Z,28.10
2018-09-19T16:48:02.552Z,28.00
2018-09-19T16:50:29.761Z,27.90
2018-09-19T16:52:56.951Z,27.70
2018-09-19T16:55:24.072Z,27.70
2018-09-19T16:57:51.416Z,27.60
2018-09-19T17:00:18.586Z,27.40
2018-09-19T17:02:45.821Z,27.30
2018-09-19T17:05:13.177Z,27.20
2018-09-19T17:07:40.444Z,27.00
2018-09-19T17:10:07.625Z,26.90
2018-09-19T17:12:34.833Z,26.70
2018-09-19T17:15:02.031Z,26.60
2018-09-19T17:17:29.265Z,26.60
2018-09-19T17:19:56.429Z,26.50
2018-09-19T17:22:23.592Z,26.40
2018-09-19T17:24:50.796Z,26.40
2018-09-19T17:27:18.060Z,26.30
2018-09-19T17:29:45.305Z,26.20
2018-09-19T17:32:12.503Z,26.10
2018-09-19T17:34:39.707Z,26.00
2018-09-19T17:37:06.958Z,25.80
2018-09-19T17:39:34.080Z,25.70
2018-09-19T17:42:01.252Z,25.70
2018-09-19T17:44:28.541Z,25.60
2018-09-19T17:46:55.808Z,25.50
2018-09-19T17:49:22.978Z,25.40
2018-09-19T17:51:50.211Z,25.40
2018-09-19T17:54:17.460Z,25.40
2018-09-19T17:56:44.685Z,25.40
2018-09-19T17:59:13.746Z,25.30
2018-09-19T18:01:41.015Z,25.20
2018-09-19T18:04:08.184Z,25.20
2018-09-19T18:06:35.448Z,25.10
2018-09-19T18:09:02.839Z,25.10
2018-09-19T18:11:30.024Z,25.10
2018-09-19T18:13:57.211Z,25.00
2018-09-19T18:16:24.659Z,25.00
2018-09-19T18:18:52.581Z,25.10
2018-09-19T18:21:19.921Z,25.00
2018-09-19T18:23:47.087Z,25.00
2018-09-19T18:26:14.270Z,24.90
2018-09-19T18:28:41.425Z,24.80
2018-09-19T18:31:08.696Z,24.80
2018-09-19T18:33:35.871Z,24.70
2018-09-19T18:36:03.052Z,24.60
2018-09-19T18:38:30.212Z,24.60
2018-09-19T18:40:57.449Z,24.50
2018-09-19T18:43:24.620Z,24.50
2018-09-19T18:45:51.911Z,24.40
2018-09-19T18:48:19.068Z,24.50
2018-09-19T18:50:46.271Z,24.40
2018-09-19T18:53:20.291Z,24.40
2018-09-19T18:55:47.544Z,24.40
2018-09-19T19:00:48.607Z,24.20
2018-09-19T19:03:15.779Z,24.20
2018-09-19T19:05:43.012Z,24.10
2018-09-19T19:08:10.172Z,24.00
2018-09-19T19:10:37.348Z,23.90
2018-09-19T19:13:04.562Z,23.80
2018-09-19T19:15:31.740Z,23.80
2018-09-19T19:17:58.947Z,23.70
2018-09-19T19:20:26.145Z,23.70
2018-09-19T19:22:53.311Z,23.70
2018-09-19T19:25:20.467Z,23.60
2018-09-19T19:27:47.640Z,23.60
2018-09-19T19:30:14.842Z,23.60
2018-09-19T19:32:41.972Z,23.50
2018-09-19T19:35:09.143Z,23.50
2018-09-19T19:37:36.373Z,23.50
2018-09-19T19:40:03.595Z,23.50
2018-09-19T19:42:30.893Z,23.50
2018-09-19T19:44:58.164Z,23.50
2018-09-19T19:47:25.373Z,23.40
2018-09-19T19:49:52.548Z,23.30
2018-09-19T19:52:19.783Z,23.30
2018-09-19T19:54:47.321Z,23.20
2018-09-19T19:57:14.583Z,23.20
2018-09-19T19:59:41.726Z,23.10
2018-09-19T20:02:08.905Z,23.10
2018-09-19T20:04:36.131Z,23.10
2018-09-19T20:07:04.045Z,23.00
2018-09-19T20:09:31.246Z,23.00
2018-09-19T20:11:58.414Z,23.00
2018-09-19T20:14:25.563Z,23.00
2018-09-19T20:16:52.819Z,22.90
2018-09-19T20:19:19.980Z,22.90
2018-09-19T20:21:47.149Z,22.90
2018-09-19T20:24:14.321Z,22.90
2018-09-19T20:26:41.607Z,22.90
2018-09-19T20:29:08.872Z,22.90
2018-09-19T20:31:36.053Z,22.90
2018-09-19T20:34:03.290Z,22.90
2018-09-19T20:36:30.448Z,22.90
2018-09-19T20:38:57.608Z,22.90
2018-09-19T20:41:24.923Z,22.80
2018-09-19T20:43:52.098Z,22.80
2018-09-19T20:46:20.389Z,22.80
2018-09-19T20:48:47.544Z,22.90
2018-09-19T20:51:14.744Z,22.90
2018-09-19T20:53:41.949Z,22.90
2018-09-19T20:56:09.152Z,22.90
2018-09-19T20:58:36.679Z,23.10
2018-09-19T21:01:03.831Z,23.10
2018-09-19T21:03:30.995Z,23.20
2018-09-19T21:05:58.200Z,23.30
2018-09-19T21:08:25.364Z,23.50
2018-09-19T21:10:52.612Z,23.50
2018-09-19T21:13:19.784Z,23.40
2018-09-19T21:15:46.983Z,23.30
2018-09-19T21:18:14.139Z,23.20
2018-09-19T21:20:41.304Z,23.00
2018-09-19T21:23:08.527Z,22.90
2018-09-19T21:25:35.700Z,22.90
2018-09-19T21:28:02.924Z,22.70
2018-09-19T21:30:30.085Z,22.50
2018-09-19T21:32:57.246Z,22.40
2018-09-19T21:35:24.412Z,22.30
2018-09-19T21:37:51.581Z,22.30
2018-09-19T21:40:18.727Z,22.30
2018-09-19T21:42:45.931Z,22.30
2018-09-19T21:45:13.075Z,22.30
2018-09-19T21:47:40.231Z,22.20
2018-09-19T21:50:07.396Z,22.20
2018-09-19T21:52:34.539Z,22.20
2018-09-19T21:55:01.928Z,22.20
2018-09-19T21:57:29.156Z,22.10
2018-09-19T21:59:56.353Z,22.10
2018-09-19T22:02:23.504Z,22.10
2018-09-19T22:04:50.668Z,22.00
2018-09-19T22:07:17.820Z,22.00
2018-09-19T22:09:44.982Z,22.00
2018-09-19T22:12:12.137Z,21.90
2018-09-19T22:14:40.928Z,21.90
2018-09-19T22:17:08.123Z,21.90
2018-09-19T22:19:35.341Z,21.90
2018-09-19T22:22:02.662Z,21.90
2018-09-19T22:24:29.827Z,21.80
2018-09-19T22:26:57.115Z,21.80
2018-09-19T22:29:24.275Z,21.80
2018-09-19T22:31:51.440Z,21.80
2018-09-19T22:34:18.600Z,21.80
2018-09-19T22:36:45.744Z,21.80
2018-09-19T22:39:12.900Z,21.70
2018-09-19T22:41:40.060Z,21.70
2018-09-19T22:44:07.233Z,21.70
2018-09-19T22:46:34.388Z,21.70
2018-09-19T22:49:01.543Z,21.60
2018-09-19T22:51:28.687Z,21.50
2018-09-19T22:53:55.895Z,21.50
2018-09-19T22:56:23.044Z,21.50
2018-09-19T22:58:50.196Z,21.50
2018-09-19T23:01:17.404Z,21.50
2018-09-19T23:03:44.564Z,21.50
2018-09-19T23:06:11.741Z,21.50
2018-09-19T23:08:38.896Z,21.50
2018-09-19T23:11:06.117Z,21.60
2018-09-19T23:13:33.271Z,21.50
2018-09-19T23:16:00.615Z,21.50
2018-09-19T23:18:27.784Z,21.50
2018-09-19T23:20:54.954Z,21.40
2018-09-19T23:23:22.136Z,21.40
2018-09-19T23:25:49.311Z,21.30
2018-09-19T23:28:16.464Z,21.10
2018-09-19T23:30:43.640Z,21.00
2018-09-19T23:33:10.799Z,20.80
2018-09-19T23:35:38.036Z,20.60
2018-09-19T23:38:05.234Z,20.60
2018-09-19T23:40:32.823Z,20.60
2018-09-19T23:42:59.980Z,20.50
2018-09-19T23:45:27.272Z,20.60
2018-09-19T23:47:54.449Z,20.70
2018-09-19T23:50:21.608Z,20.70
2018-09-19T23:52:48.761Z,20.70
2018-09-19T23:55:15.924Z,20.70
2018-09-19T23:57:43.114Z,20.70
